Time;durP1;ratioP1;P1;durP2;ratioP2;P2;SDS_P1;SDS_P2;PMS_P1;PMS_P2;Temp;Humidity;BMP_temperature;BMP_pressure;BME280_temperature;BME280_humidity;BME280_pressure;Samples;Min_cycle;Max_cycle;Signal;HPM_P1;HPM_P2
2023/07/03 00:01:07;;;;;;;;;;;22.40;51.00;;;;;;10286233;28;94810;-66
2023/07/03 00:06:09;;;;;;;;;;;22.40;51.00;;;;;;10286184;28;93719;-65
2023/07/03 00:11:11;;;;;;;;;;;22.30;51.00;;;;;;10286138;28;94539;-66
2023/07/03 00:16:12;;;;;;;;;;;22.30;51.10;;;;;;10285833;28;92986;-66
2023/07/03 00:21:14;;;;;;;;;;;22.30;51.20;;;;;;10286574;28;94486;-66
2023/07/03 00:26:16;;;;;;;;;;;22.30;51.20;;;;;;10267745;28;92915;-65
2023/07/03 00:31:17;;;;;;;;;;;22.30;51.30;;;;;;10283228;28;97148;-65
2023/07/03 00:36:19;;;;;;;;;;;22.30;51.40;;;;;;10286332;28;94822;-66
2023/07/03 00:41:21;;;;;;;;;;;22.30;51.40;;;;;;10285863;28;94597;-66
2023/07/03 00:46:24;;;;;;;;;;;22.30;51.50;;;;;;10285448;28;94463;-66
2023/07/03 00:51:26;;;;;;;;;;;22.30;51.50;;;;;;10291817;28;95064;-66
2023/07/03 00:56:27;;;;;;;;;;;22.30;51.70;;;;;;10291227;28;93505;-65
2023/07/03 01:01:55;;;;;;;;;;;22.30;51.80;;;;;;10292454;28;93519;-66
2023/07/03 01:07:00;;;;;;;;;;;22.30;51.80;;;;;;10288389;28;94010;-66
2023/07/03 01:12:02;;;;;;;;;;;22.30;51.80;;;;;;10291764;28;94772;-66
2023/07/03 01:17:09;;;;;;;;;;;22.30;52.00;;;;;;10291963;28;95005;-65
2023/07/03 01:22:23;;;;;;;;;;;22.30;52.10;;;;;;10288744;28;95965;-66
2023/07/03 01:27:30;;;;;;;;;;;22.30;52.10;;;;;;10292394;28;95741;-65
2023/07/03 01:32:33;;;;;;;;;;;22.30;52.20;;;;;;10290224;28;93452;-66
2023/07/03 01:37:37;;;;;;;;;;;22.30;52.30;;;;;;10274270;28;94601;-65
2023/07/03 01:42:40;;;;;;;;;;;22.30;52.30;;;;;;10290720;28;94638;-66
2023/07/03 01:47:42;;;;;;;;;;;22.30;52.30;;;;;;10290237;28;94555;-65
2023/07/03 01:52:46;;;;;;;;;;;22.30;52.30;;;;;;10290522;28;94848;-66
2023/07/03 01:57:58;;;;;;;;;;;22.30;52.30;;;;;;10290122;28;92762;-66
2023/07/03 02:03:02;;;;;;;;;;;22.30;52.40;;;;;;10289168;28;94474;-66
2023/07/03 02:08:05;;;;;;;;;;;22.30;52.40;;;;;;10289395;28;94545;-66
2023/07/03 02:13:07;;;;;;;;;;;22.30;52.50;;;;;;10287492;28;96867;-65
2023/07/03 02:18:09;;;;;;;;;;;22.30;52.40;;;;;;10289544;28;94648;-66
2023/07/03 02:23:11;;;;;;;;;;;22.30;52.50;;;;;;10290095;28;94486;-66
2023/07/03 02:28:12;;;;;;;;;;;22.30;52.60;;;;;;10288523;28;94473;-65
2023/07/03 02:33:14;;;;;;;;;;;22.30;53.70;;;;;;10288501;28;94608;-66
2023/07/03 02:38:16;;;;;;;;;;;22.30;52.50;;;;;;10288296;28;94533;-66
2023/07/03 02:43:18;;;;;;;;;;;22.30;52.30;;;;;;10288448;28;93575;-67
2023/07/03 02:48:19;;;;;;;;;;;22.30;52.20;;;;;;10288341;28;93538;-65
2023/07/03 02:53:22;;;;;;;;;;;22.30;51.90;;;;;;10270989;28;94534;-66
2023/07/03 02:58:24;;;;;;;;;;;22.30;51.80;;;;;;10288273;28;93401;-66
2023/07/03 03:03:26;;;;;;;;;;;22.30;52.40;;;;;;10285052;28;96085;-65
2023/07/03 03:08:28;;;;;;;;;;;22.30;51.20;;;;;;10288320;28;93498;-66
2023/07/03 03:13:29;;;;;;;;;;;22.30;51.00;;;;;;10287523;28;93551;-61
2023/07/03 03:18:31;;;;;;;;;;;22.30;50.90;;;;;;10287914;28;94827;-61
2023/07/03 03:23:33;;;;;;;;;;;22.30;50.70;;;;;;10287591;28;93613;-60
2023/07/03 03:28:35;;;;;;;;;;;22.30;50.60;;;;;;10287226;28;92848;-60
2023/07/03 03:33:36;;;;;;;;;;;22.30;50.50;;;;;;10286953;28;93551;-60
2023/07/03 03:38:38;;;;;;;;;;;22.20;50.30;;;;;;10288456;28;93756;-61
2023/07/03 03:43:40;;;;;;;;;;;22.20;50.20;;;;;;10285396;28;94661;-60
2023/07/03 03:48:42;;;;;;;;;;;22.20;50.10;;;;;;10285926;28;94404;-60
2023/07/03 03:53:43;;;;;;;;;;;22.20;50.00;;;;;;10285469;28;96898;-60
2023/07/03 03:58:46;;;;;;;;;;;22.20;50.00;;;;;;10287789;28;94514;-60
2023/07/03 04:03:47;;;;;;;;;;;22.20;49.90;;;;;;10286781;28;94483;-60
2023/07/03 04:08:49;;;;;;;;;;;22.20;49.80;;;;;;10287461;28;94409;-60
2023/07/03 04:13:51;;;;;;;;;;;22.20;49.70;;;;;;10268495;28;94421;-60
2023/07/03 04:18:53;;;;;;;;;;;22.20;49.60;;;;;;10285139;28;93416;-61
2023/07/03 04:23:54;;;;;;;;;;;22.20;49.70;;;;;;10289107;28;93541;-61
2023/07/03 04:28:56;;;;;;;;;;;22.20;49.60;;;;;;10291699;28;92755;-61
2023/07/03 04:33:58;;;;;;;;;;;22.20;49.50;;;;;;10292495;28;95497;-61
2023/07/03 04:39:00;;;;;;;;;;;22.20;49.50;;;;;;10292839;28;93616;-61
2023/07/03 04:44:02;;;;;;;;;;;22.20;49.50;;;;;;10272417;28;95263;-60
2023/07/03 04:49:04;;;;;;;;;;;22.20;49.50;;;;;;10763972;22;95852;-66
2023/07/03 04:54:05;;;;;;;;;;;22.20;49.50;;;;;;10274826;28;94753;-66
2023/07/03 04:59:07;;;;;;;;;;;22.20;49.50;;;;;;10292394;28;93694;-61
2023/07/03 05:04:10;;;;;;;;;;;22.20;49.50;;;;;;10291572;28;94730;-60
2023/07/03 05:09:12;;;;;;;;;;;22.20;49.40;;;;;;10259248;28;94791;-60
2023/07/03 05:14:14;;;;;;;;;;;22.20;49.50;;;;;;10290729;28;93647;-60
2023/07/03 05:19:16;;;;;;;;;;;22.20;49.50;;;;;;10292644;28;93847;-61
2023/07/03 05:24:18;;;;;;;;;;;22.20;49.50;;;;;;10291799;28;93506;-60
2023/07/03 05:29:20;;;;;;;;;;;22.20;49.40;;;;;;10289633;28;94261;-61
2023/07/03 05:34:22;;;;;;;;;;;22.20;49.40;;;;;;10287579;28;95937;-60
2023/07/03 05:39:24;;;;;;;;;;;22.20;49.40;;;;;;10290462;28;93546;-60
2023/07/03 05:44:26;;;;;;;;;;;22.30;49.40;;;;;;10290056;28;94506;-60
2023/07/03 05:49:28;;;;;;;;;;;22.20;49.30;;;;;;10288786;28;93500;-61
2023/07/03 05:54:30;;;;;;;;;;;22.30;49.40;;;;;;10288475;28;93114;-60
2023/07/03 05:59:32;;;;;;;;;;;22.20;49.30;;;;;;10289097;28;93830;-60
2023/07/03 06:04:34;;;;;;;;;;;22.20;49.50;;;;;;10287615;28;94173;-60
2023/07/03 06:09:36;;;;;;;;;;;22.20;49.50;;;;;;10290447;28;92768;-60
2023/07/03 06:14:37;;;;;;;;;;;22.20;49.40;;;;;;10271440;28;94317;-60
2023/07/03 06:19:39;;;;;;;;;;;22.20;49.50;;;;;;10290521;28;93719;-61
2023/07/03 06:24:41;;;;;;;;;;;22.20;49.50;;;;;;10287589;28;96169;-60
2023/07/03 06:29:43;;;;;;;;;;;22.20;49.70;;;;;;10289451;28;94322;-60
2023/07/03 06:34:44;;;;;;;;;;;22.20;49.70;;;;;;10289076;28;93147;-60
2023/07/03 06:39:46;;;;;;;;;;;22.20;49.70;;;;;;10289773;28;92994;-60
2023/07/03 06:44:48;;;;;;;;;;;22.20;49.60;;;;;;10288217;28;93519;-60
2023/07/03 06:49:50;;;;;;;;;;;22.20;49.60;;;;;;10288570;28;94513;-60
2023/07/03 06:54:51;;;;;;;;;;;22.30;49.60;;;;;;10288515;28;93181;-60
2023/07/03 06:59:53;;;;;;;;;;;22.30;49.60;;;;;;10288581;28;92811;-60
2023/07/03 07:04:55;;;;;;;;;;;22.30;49.60;;;;;;10288733;28;94554;-61
2023/07/03 07:09:57;;;;;;;;;;;22.20;49.40;;;;;;10288870;28;94416;-60
2023/07/03 07:14:59;;;;;;;;;;;22.20;49.40;;;;;;10284681;28;94916;-60
2023/07/03 07:20:01;;;;;;;;;;;22.20;49.40;;;;;;10270416;28;93452;-61
2023/07/03 07:25:03;;;;;;;;;;;22.30;49.40;;;;;;10270629;28;93539;-60
2023/07/03 07:30:05;;;;;;;;;;;22.20;49.30;;;;;;10287618;28;94643;-59
2023/07/03 07:35:07;;;;;;;;;;;22.30;49.40;;;;;;10289237;28;93295;-60
2023/07/03 07:40:09;;;;;;;;;;;22.30;49.40;;;;;;10288641;28;93542;-60
2023/07/03 07:45:11;;;;;;;;;;;22.30;49.40;;;;;;10270237;28;94014;-60
2023/07/03 07:50:13;;;;;;;;;;;22.30;49.40;;;;;;10289452;28;92207;-60
2023/07/03 07:55:14;;;;;;;;;;;22.30;49.40;;;;;;10287798;28;94748;-60
2023/07/03 08:00:16;;;;;;;;;;;22.30;49.40;;;;;;10292133;28;93590;-60
2023/07/03 08:05:18;;;;;;;;;;;22.30;49.40;;;;;;10291665;28;96108;-60
2023/07/03 08:10:20;;;;;;;;;;;22.30;49.40;;;;;;10275955;28;93374;-60
2023/07/03 08:15:21;;;;;;;;;;;22.30;49.30;;;;;;10276214;28;94054;-60
2023/07/03 08:20:23;;;;;;;;;;;22.30;49.20;;;;;;10293626;28;93743;-61
2023/07/03 08:25:25;;;;;;;;;;;22.40;49.30;;;;;;10275140;28;93616;-61
2023/07/03 08:30:28;;;;;;;;;;;22.40;49.30;;;;;;10293504;28;92986;-61
2023/07/03 08:35:29;;;;;;;;;;;22.40;49.20;;;;;;10292998;28;93654;-61
2023/07/03 08:40:34;;;;;;;;;;;22.30;49.10;;;;;;10294026;28;93432;-61
2023/07/03 08:45:36;;;;;;;;;;;22.40;49.10;;;;;;10292159;28;94580;-62
2023/07/03 08:50:38;;;;;;;;;;;22.40;49.10;;;;;;10292333;28;94506;-60
2023/07/03 08:55:45;;;;;;;;;;;22.40;49.10;;;;;;10290273;28;96849;-61
2023/07/03 09:00:50;;;;;;;;;;;22.30;48.90;;;;;;10292056;28;93552;-60
2023/07/03 09:06:05;;;;;;;;;;;22.40;48.90;;;;;;10292367;28;94461;-61
2023/07/03 09:11:07;;;;;;;;;;;22.40;48.90;;;;;;10291379;28;93569;-61
2023/07/03 09:16:15;;;;;;;;;;;22.30;48.70;;;;;;10291304;28;93593;-61
2023/07/03 09:21:17;;;;;;;;;;;22.30;48.70;;;;;;10291057;28;93783;-61
2023/07/03 09:26:48;;;;;;;;;;;22.30;48.70;;;;;;10292029;28;93831;-61
2023/07/03 09:31:50;;;;;;;;;;;22.30;48.70;;;;;;10275281;28;93028;-61
2023/07/03 09:36:58;;;;;;;;;;;22.30;48.80;;;;;;10291340;28;94448;-61
2023/07/03 09:42:07;;;;;;;;;;;22.30;48.70;;;;;;10291210;28;93466;-60
2023/07/03 09:47:25;;;;;;;;;;;22.30;48.60;;;;;;10276119;28;96227;-60
2023/07/03 09:52:28;;;;;;;;;;;22.20;48.70;;;;;;10330173;28;94561;-60
2023/07/03 09:57:29;;;;;;;;;;;22.20;48.10;;;;;;10331884;28;94525;-60
2023/07/03 10:02:31;;;;;;;;;;;22.20;48.10;;;;;;10310789;28;93861;-61
2023/07/03 10:07:39;;;;;;;;;;;22.20;47.90;;;;;;10331445;28;94069;-61
2023/07/03 10:12:45;;;;;;;;;;;22.20;48.00;;;;;;10330886;28;94574;-60
2023/07/03 10:17:50;;;;;;;;;;;22.20;47.80;;;;;;10331473;28;93287;-59
2023/07/03 10:22:53;;;;;;;;;;;22.30;47.60;;;;;;10330159;28;92507;-60
2023/07/03 10:27:58;;;;;;;;;;;22.30;48.50;;;;;;10329808;28;93625;-60
2023/07/03 10:33:03;;;;;;;;;;;22.40;48.10;;;;;;10330013;28;94557;-60
2023/07/03 10:38:12;;;;;;;;;;;22.40;48.50;;;;;;10327493;28;96852;-61
2023/07/03 10:43:14;;;;;;;;;;;22.50;48.90;;;;;;10329137;28;94141;-60
2023/07/03 10:48:19;;;;;;;;;;;22.50;49.30;;;;;;10328205;28;94022;-61
2023/07/03 10:53:34;;;;;;;;;;;22.50;47.00;;;;;;10326820;28;94295;-61
2023/07/03 10:58:37;;;;;;;;;;;22.40;46.70;;;;;;10328534;28;93457;-61
2023/07/03 11:03:42;;;;;;;;;;;22.40;46.10;;;;;;10310740;28;93612;-61
2023/07/03 11:08:44;;;;;;;;;;;22.40;45.70;;;;;;10329068;28;94006;-60
2023/07/03 11:13:51;;;;;;;;;;;22.30;45.70;;;;;;10329871;28;94058;-61
2023/07/03 11:19:12;;;;;;;;;;;22.30;45.80;;;;;;10328105;28;93229;-61
2023/07/03 11:24:19;;;;;;;;;;;22.20;45.70;;;;;;10327592;28;94175;-61
2023/07/03 11:29:21;;;;;;;;;;;22.20;45.80;;;;;;10325051;28;95925;-61
2023/07/03 11:34:23;;;;;;;;;;;22.30;45.60;;;;;;10327551;28;94810;-61
2023/07/03 11:39:29;;;;;;;;;;;22.20;45.10;;;;;;10326922;28;93264;-61
2023/07/03 11:44:41;;;;;;;;;;;22.30;45.30;;;;;;10327456;28;93495;-61
2023/07/03 11:49:44;;;;;;;;;;;22.30;44.90;;;;;;10327451;28;93907;-61
2023/07/03 11:54:56;;;;;;;;;;;22.30;45.20;;;;;;10327338;28;94519;-62
2023/07/03 12:00:18;;;;;;;;;;;22.30;45.50;;;;;;10327164;28;94523;-61
2023/07/03 12:05:39;;;;;;;;;;;22.30;45.70;;;;;;10326705;28;92852;-61
2023/07/03 12:10:42;;;;;;;;;;;22.40;46.10;;;;;;10326498;28;93440;-61
2023/07/03 12:15:44;;;;;;;;;;;22.40;46.20;;;;;;10326808;28;93712;-61
2023/07/03 12:20:46;;;;;;;;;;;22.40;46.50;;;;;;10325552;28;97026;-61
2023/07/03 12:25:47;;;;;;;;;;;22.40;46.60;;;;;;10309801;28;94444;-61
2023/07/03 12:30:50;;;;;;;;;;;22.40;46.90;;;;;;10325920;28;93288;-69
2023/07/03 12:35:52;;;;;;;;;;;22.50;47.10;;;;;;10327182;28;93520;-69
2023/07/03 12:40:54;;;;;;;;;;;22.40;47.20;;;;;;10308261;28;94027;-69
2023/07/03 12:45:56;;;;;;;;;;;22.50;47.50;;;;;;10330612;28;93294;-67
2023/07/03 12:50:57;;;;;;;;;;;22.50;47.50;;;;;;10333003;28;93499;-67
2023/07/03 12:56:03;;;;;;;;;;;22.50;47.30;;;;;;10333476;28;92742;-66
2023/07/03 13:01:06;;;;;;;;;;;22.50;47.20;;;;;;10314384;28;93989;-68
2023/07/03 13:06:19;;;;;;;;;;;22.50;47.10;;;;;;10332980;28;94991;-61
2023/07/03 13:11:39;;;;;;;;;;;22.40;47.10;;;;;;10330045;28;96970;-62
2023/07/03 13:16:44;;;;;;;;;;;22.40;47.20;;;;;;10331563;28;93823;-62
2023/07/03 13:21:49;;;;;;;;;;;22.40;47.20;;;;;;10331231;28;93748;-61
2023/07/03 13:26:51;;;;;;;;;;;22.40;47.30;;;;;;10331562;28;93161;-61
2023/07/03 13:32:10;;;;;;;;;;;22.40;47.60;;;;;;10332457;28;94606;-67
2023/07/03 13:37:12;;;;;;;;;;;22.40;47.70;;;;;;10314457;28;94861;-66
2023/07/03 13:42:14;;;;;;;;;;;22.40;48.50;;;;;;10331649;28;94651;-67
2023/07/03 13:47:15;;;;;;;;;;;22.30;48.80;;;;;;10332994;28;93986;-67
2023/07/03 13:52:17;;;;;;;;;;;22.30;48.90;;;;;;10332631;28;93696;-68
2023/07/03 13:57:18;;;;;;;;;;;22.40;49.00;;;;;;10332147;28;94519;-68
2023/07/03 14:02:20;;;;;;;;;;;22.30;49.10;;;;;;10329396;28;96859;-68
2023/07/03 14:07:35;;;;;;;;;;;22.30;49.20;;;;;;10331843;28;94980;-68
2023/07/03 14:12:37;;;;;;;;;;;22.30;49.40;;;;;;10331104;28;94718;-68
2023/07/03 14:17:38;;;;;;;;;;;22.30;50.40;;;;;;10331388;28;93654;-67
2023/07/03 14:22:41;;;;;;;;;;;22.40;49.50;;;;;;10330748;28;94107;-68
2023/07/03 14:27:43;;;;;;;;;;;22.40;49.60;;;;;;10314985;28;94750;-68
2023/07/03 14:32:46;;;;;;;;;;;22.40;49.70;;;;;;10331015;28;93534;-67
2023/07/03 14:37:56;;;;;;;;;;;22.40;49.80;;;;;;10330589;28;94262;-68
2023/07/03 14:42:58;;;;;;;;;;;22.40;49.90;;;;;;10330286;28;93614;-68
2023/07/03 14:47:59;;;;;;;;;;;22.30;49.80;;;;;;10328840;28;93567;-67
2023/07/03 14:53:01;;;;;;;;;;;22.30;49.90;;;;;;10327551;28;96314;-67
2023/07/03 14:58:06;;;;;;;;;;;22.30;50.00;;;;;;10329321;28;93859;-68
2023/07/03 15:03:08;;;;;;;;;;;22.40;50.10;;;;;;10330976;28;94531;-67
2023/07/03 15:08:10;;;;;;;;;;;22.30;50.00;;;;;;10329301;28;94325;-68
2023/07/03 15:13:12;;;;;;;;;;;22.40;50.00;;;;;;10328766;28;94808;-62
2023/07/03 15:18:14;;;;;;;;;;;22.40;50.10;;;;;;10329159;28;93475;-68
2023/07/03 15:23:16;;;;;;;;;;;22.30;50.10;;;;;;10310656;28;93694;-68
2023/07/03 15:28:17;;;;;;;;;;;22.30;50.10;;;;;;10328227;28;92938;-67
2023/07/03 15:33:20;;;;;;;;;;;22.40;50.10;;;;;;10328543;28;92630;-68
2023/07/03 15:38:21;;;;;;;;;;;22.40;50.10;;;;;;10327960;28;94576;-68
2023/07/03 15:43:24;;;;;;;;;;;22.40;50.10;;;;;;10326246;28;96293;-68
2023/07/03 15:48:25;;;;;;;;;;;22.40;50.10;;;;;;10327044;28;92819;-67
2023/07/03 15:53:27;;;;;;;;;;;22.40;50.10;;;;;;10326833;28;93522;-68
2023/07/03 15:58:30;;;;;;;;;;;22.40;50.10;;;;;;10327845;28;93947;-67
2023/07/03 16:03:32;;;;;;;;;;;22.40;50.10;;;;;;10328137;28;94487;-67
2023/07/03 16:08:34;;;;;;;;;;;22.40;50.10;;;;;;10310627;28;94668;-67
2023/07/03 16:13:36;;;;;;;;;;;22.50;50.30;;;;;;10309176;28;93621;-67
2023/07/03 16:18:38;;;;;;;;;;;22.50;50.30;;;;;;10327802;28;92869;-62
2023/07/03 16:23:40;;;;;;;;;;;22.50;50.30;;;;;;10334333;28;93545;-62
2023/07/03 16:28:42;;;;;;;;;;;22.50;50.30;;;;;;10315744;28;94885;-62
2023/07/03 16:33:45;;;;;;;;;;;22.50;50.30;;;;;;10332103;28;96662;-62
2023/07/03 16:38:51;;;;;;;;;;;22.50;50.30;;;;;;10333699;28;94469;-62
2023/07/03 16:43:53;;;;;;;;;;;22.60;50.30;;;;;;10315975;28;94559;-62
2023/07/03 16:48:56;;;;;;;;;;;22.50;50.30;;;;;;10316030;28;93890;-62
2023/07/03 16:53:58;;;;;;;;;;;22.50;50.30;;;;;;10333736;28;94554;-62
2023/07/03 16:58:59;;;;;;;;;;;22.60;50.30;;;;;;10333278;28;93821;-62
2023/07/03 17:04:01;;;;;;;;;;;22.60;50.30;;;;;;10316131;28;94247;-62
2023/07/03 17:09:03;;;;;;;;;;;22.50;50.30;;;;;;10316123;28;92940;-62
2023/07/03 17:14:05;;;;;;;;;;;22.50;50.30;;;;;;10315380;28;93418;-62
2023/07/03 17:19:07;;;;;;;;;;;22.50;50.40;;;;;;10315503;28;93601;-62
2023/07/03 17:24:09;;;;;;;;;;;22.50;50.50;;;;;;10313618;28;96899;-62
2023/07/03 17:29:10;;;;;;;;;;;22.50;50.50;;;;;;10332280;28;94197;-62
2023/07/03 17:34:12;;;;;;;;;;;22.50;50.50;;;;;;10332631;28;94498;-63
2023/07/03 17:39:14;;;;;;;;;;;22.50;50.60;;;;;;10332184;28;94509;-62
2023/07/03 17:44:16;;;;;;;;;;;22.50;50.60;;;;;;10332588;28;94612;-62
2023/07/03 17:49:17;;;;;;;;;;;22.50;50.60;;;;;;10312476;28;93654;-62
2023/07/03 17:54:19;;;;;;;;;;;22.40;50.60;;;;;;10314230;28;94520;-63
2023/07/03 17:59:21;;;;;;;;;;;22.40;50.60;;;;;;10333047;28;93012;-62
2023/07/03 18:04:23;;;;;;;;;;;22.40;51.70;;;;;;10330981;28;93071;-63
2023/07/03 18:09:25;;;;;;;;;;;22.40;50.80;;;;;;10331366;28;93585;-63
2023/07/03 18:14:27;;;;;;;;;;;22.40;50.90;;;;;;10328183;28;96975;-62
2023/07/03 18:19:29;;;;;;;;;;;22.40;51.00;;;;;;10330766;28;94513;-63
2023/07/03 18:24:30;;;;;;;;;;;22.40;51.00;;;;;;10330437;28;93637;-62
2023/07/03 18:29:32;;;;;;;;;;;22.40;51.20;;;;;;10311893;28;94862;-63
2023/07/03 18:34:34;;;;;;;;;;;22.30;51.10;;;;;;10329860;28;93453;-63
2023/07/03 18:39:36;;;;;;;;;;;22.30;51.10;;;;;;10330420;28;94526;-63
2023/07/03 18:44:37;;;;;;;;;;;22.30;51.20;;;;;;10328931;28;94166;-62
2023/07/03 18:49:39;;;;;;;;;;;22.30;51.30;;;;;;10329939;28;93729;-62
2023/07/03 18:54:41;;;;;;;;;;;22.30;51.20;;;;;;10329011;28;93688;-61
2023/07/03 18:59:43;;;;;;;;;;;22.30;51.20;;;;;;10330446;28;93397;-62
2023/07/03 19:04:45;;;;;;;;;;;22.30;51.30;;;;;;10327630;28;97287;-62
2023/07/03 19:09:47;;;;;;;;;;;22.30;51.60;;;;;;10328675;28;93796;-62
2023/07/03 19:14:49;;;;;;;;;;;22.30;51.70;;;;;;10310157;28;93431;-62
2023/07/03 19:19:51;;;;;;;;;;;22.30;51.80;;;;;;10328365;28;94597;-62
2023/07/03 19:24:55;;;;;;;;;;;22.30;52.90;;;;;;10327882;28;94556;-62
2023/07/03 19:29:57;;;;;;;;;;;22.30;51.90;;;;;;10327630;28;95912;-62
2023/07/03 19:34:58;;;;;;;;;;;22.30;52.00;;;;;;10327713;28;93712;-62
2023/07/03 19:40:00;;;;;;;;;;;22.30;52.10;;;;;;10329704;28;94112;-62
2023/07/03 19:45:02;;;;;;;;;;;22.30;52.10;;;;;;10309684;28;94424;-62
2023/07/03 19:50:09;;;;;;;;;;;22.30;52.30;;;;;;10326361;28;94625;-62
2023/07/03 19:55:11;;;;;;;;;;;22.30;52.30;;;;;;10324223;28;95969;-62
2023/07/03 20:00:13;;;;;;;;;;;22.30;52.30;;;;;;10327375;28;94932;-61
2023/07/03 20:05:15;;;;;;;;;;;22.30;52.40;;;;;;10327610;28;93515;-62
2023/07/03 20:10:17;;;;;;;;;;;22.30;52.50;;;;;;10327403;28;93564;-61
2023/07/03 20:15:19;;;;;;;;;;;22.30;52.60;;;;;;10326699;28;94461;-62
2023/07/03 20:20:21;;;;;;;;;;;22.30;52.60;;;;;;10326977;28;94654;-68
2023/07/03 20:25:23;;;;;;;;;;;22.30;52.70;;;;;;10325795;28;93569;-68
2023/07/03 20:30:24;;;;;;;;;;;22.30;52.80;;;;;;10309851;28;91869;-67
2023/07/03 20:35:26;;;;;;;;;;;22.30;52.90;;;;;;10326939;28;93511;-67
2023/07/03 20:40:28;;;;;;;;;;;22.30;52.90;;;;;;10326435;28;92890;-61
2023/07/03 20:45:29;;;;;;;;;;;22.30;53.10;;;;;;10323073;28;95900;-66
2023/07/03 20:50:31;;;;;;;;;;;22.30;53.10;;;;;;10326230;28;93480;-66
2023/07/03 20:55:42;;;;;;;;;;;22.20;53.10;;;;;;10326023;28;93946;-66
2023/07/03 21:00:44;;;;;;;;;;;22.20;53.10;;;;;;10326162;28;93716;-66
2023/07/03 21:05:46;;;;;;;;;;;22.20;53.20;;;;;;10328301;28;93618;-66
2023/07/03 21:10:55;;;;;;;;;;;22.20;53.30;;;;;;10332479;28;94512;-66
2023/07/03 21:15:59;;;;;;;;;;;22.20;53.40;;;;;;10332766;28;94066;-66
2023/07/03 21:21:08;;;;;;;;;;;22.10;53.40;;;;;;10334277;28;92925;-66
2023/07/03 21:26:10;;;;;;;;;;;22.10;53.30;;;;;;10333375;28;92458;-65
2023/07/03 21:31:13;;;;;;;;;;;22.10;53.50;;;;;;10314778;28;94915;-66
2023/07/03 21:36:21;;;;;;;;;;;22.10;53.60;;;;;;10312212;28;96693;-61
2023/07/03 21:41:28;;;;;;;;;;;22.00;53.50;;;;;;10332089;28;94616;-61
2023/07/03 21:46:31;;;;;;;;;;;22.00;53.50;;;;;;10331473;28;94513;-61
2023/07/03 21:51:32;;;;;;;;;;;22.00;53.70;;;;;;10312923;28;94600;-62
2023/07/03 21:56:34;;;;;;;;;;;22.00;53.70;;;;;;10330855;28;94161;-61
2023/07/03 22:01:37;;;;;;;;;;;22.00;53.50;;;;;;10331010;28;94566;-61
2023/07/03 22:06:39;;;;;;;;;;;22.00;53.60;;;;;;10312670;28;94536;-61
2023/07/03 22:11:42;;;;;;;;;;;21.90;53.60;;;;;;10331242;28;92894;-61
2023/07/03 22:16:44;;;;;;;;;;;22.00;53.80;;;;;;10329921;28;94482;-61
2023/07/03 22:21:45;;;;;;;;;;;21.90;53.70;;;;;;10331019;28;94514;-61
2023/07/03 22:26:50;;;;;;;;;;;22.00;53.70;;;;;;10328155;28;97259;-61
2023/07/03 22:31:52;;;;;;;;;;;22.00;53.70;;;;;;10330930;28;94532;-61
2023/07/03 22:36:53;;;;;;;;;;;22.00;53.70;;;;;;10330905;28;94853;-61
2023/07/03 22:41:55;;;;;;;;;;;22.00;53.70;;;;;;10331147;28;93445;-61
2023/07/03 22:46:56;;;;;;;;;;;21.90;53.60;;;;;;10329286;28;93687;-61
2023/07/03 22:51:58;;;;;;;;;;;21.90;53.70;;;;;;10330177;28;94867;-61
2023/07/03 22:57:00;;;;;;;;;;;22.00;53.70;;;;;;10329961;28;93361;-61
2023/07/03 23:02:02;;;;;;;;;;;22.00;53.70;;;;;;10329988;28;94015;-61
2023/07/03 23:07:07;;;;;;;;;;;21.90;53.80;;;;;;10328784;28;113969;-61
2023/07/03 23:12:09;;;;;;;;;;;21.90;53.60;;;;;;10311638;28;94991;-61
2023/07/03 23:17:11;;;;;;;;;;;21.90;53.60;;;;;;10327077;28;95900;-61
2023/07/03 23:22:12;;;;;;;;;;;22.00;53.70;;;;;;10328583;28;93671;-61
2023/07/03 23:27:19;;;;;;;;;;;21.90;53.60;;;;;;10311794;28;94533;-61
2023/07/03 23:32:21;;;;;;;;;;;21.90;53.60;;;;;;10311509;28;94483;-61
2023/07/03 23:37:22;;;;;;;;;;;21.90;53.60;;;;;;10327628;28;93987;-61
2023/07/03 23:42:25;;;;;;;;;;;22.00;53.70;;;;;;10329006;28;94670;-61
2023/07/03 23:47:26;;;;;;;;;;;22.00;53.80;;;;;;10328203;28;94537;-61
2023/07/03 23:52:28;;;;;;;;;;;22.00;53.60;;;;;;10311740;28;93021;-61
2023/07/03 23:57:30;;;;;;;;;;;21.90;53.70;;;;;;10311713;28;93275;-61
